Time;durP1;ratioP1;P1;durP2;ratioP2;P2;SDS_P1;SDS_P2;PMS_P1;PMS_P2;Temp;Humidity;BMP_temperature;BMP_pressure;BME280_temperature;BME280_humidity;BME280_pressure;Samples;Min_cycle;Max_cycle;Signal;HPM_P1;HPM_P2
2022/10/17 00:01:55;;;;;;;27.55;13.80;;;;;;;5.79;100.00;99000.53;5070167;28;20036;-75
2022/10/17 00:04:21;;;;;;;26.55;13.68;;;;;;;5.88;100.00;99014.53;5072733;28;20059;-75
2022/10/17 00:06:46;;;;;;;26.63;13.10;;;;;;;5.78;100.00;98996.16;5073384;28;20540;-76
2022/10/17 00:09:12;;;;;;;22.85;12.38;;;;;;;5.82;100.00;99009.31;5089936;28;20103;-77
2022/10/17 00:11:37;;;;;;;25.58;13.30;;;;;;;5.76;100.00;99004.13;5064438;28;20392;-74
2022/10/17 00:14:03;;;;;;;25.20;12.43;;;;;;;5.72;100.00;99002.44;5073046;28;20026;-75
2022/10/17 00:16:35;;;;;;;44.15;18.65;;;;;;;5.66;100.00;99005.22;5073085;28;20032;-76
2022/10/17 00:19:02;;;;;;;26.88;14.45;;;;;;;5.66;100.00;99018.47;5069176;28;20047;-75
2022/10/17 00:21:27;;;;;;;35.88;14.77;;;;;;;5.61;100.00;99014.16;5072956;28;20028;-75
2022/10/17 00:23:53;;;;;;;34.88;14.77;;;;;;;5.60;100.00;99010.63;5063424;28;20035;-76
2022/10/17 00:26:19;;;;;;;39.25;14.23;;;;;;;5.66;100.00;99026.44;5069634;28;20450;-75
2022/10/17 00:28:47;;;;;;;32.42;15.00;;;;;;;5.55;100.00;99025.78;5069420;28;20052;-76
2022/10/17 00:31:15;;;;;;;36.30;14.43;;;;;;;5.65;100.00;99022.06;5052955;28;20021;-75
2022/10/17 00:33:42;;;;;;;22.83;12.88;;;;;;;5.75;100.00;99036.03;5069788;28;20028;-75
2022/10/17 00:36:15;;;;;;;22.08;11.55;;;;;;;5.57;100.00;99008.03;5080995;28;20031;-75
2022/10/17 00:38:42;;;;;;;21.05;11.52;;;;;;;5.55;100.00;99030.19;5057112;28;20545;-76
2022/10/17 00:41:09;;;;;;;26.17;10.55;;;;;;;5.56;100.00;99022.22;5052592;28;20709;-77
2022/10/17 00:44:26;;;;;;;21.55;11.15;;;;;;;5.61;100.00;99033.63;5069373;28;20055;-75
2022/10/17 00:46:52;;;;;;;21.65;10.23;;;;;;;5.51;100.00;99031.19;5043901;28;20071;-75
2022/10/17 00:49:18;;;;;;;19.67;10.20;;;;;;;5.46;100.00;99023.28;5052589;28;20063;-76
2022/10/17 00:51:51;;;;;;;23.77;10.75;;;;;;;5.45;100.00;99032.13;5072521;28;20144;-74
2022/10/17 00:54:18;;;;;;;52.72;21.65;;;;;;;5.44;100.00;99033.91;5089609;28;20058;-75
2022/10/17 00:56:46;;;;;;;32.30;14.43;;;;;;;5.46;100.00;99036.56;5072524;28;20059;-76
2022/10/17 00:59:13;;;;;;;26.60;13.90;;;;;;;5.46;100.00;99041.88;5089529;28;20035;-75
2022/10/17 01:01:40;;;;;;;22.90;11.43;;;;;;;5.46;100.00;99048.06;5072444;28;20059;-75
2022/10/17 01:04:05;;;;;;;18.33;10.00;;;;;;;5.20;100.00;99023.72;5089433;28;20052;-75
2022/10/17 01:06:31;;;;;;;19.63;9.77;;;;;;;5.33;100.00;99048.28;5072459;28;20384;-76
2022/10/17 01:08:57;;;;;;;23.20;10.57;;;;;;;5.34;100.00;99052.69;5089381;28;20118;-76
2022/10/17 01:11:39;;;;;;;20.35;10.00;;;;;;;5.20;100.00;99044.94;5072561;28;20479;-76
2022/10/17 01:14:26;;;;;;;20.05;9.98;;;;;;;5.24;100.00;99048.44;5089248;28;20094;-75
2022/10/17 01:17:08;;;;;;;18.38;10.02;;;;;;;5.23;100.00;99052.00;5070832;28;20038;-76
2022/10/17 01:19:59;;;;;;;25.08;10.75;;;;;;;5.19;100.00;99048.53;5069180;28;20090;-76
2022/10/17 01:22:41;;;;;;;18.58;9.95;;;;;;;5.12;100.00;99046.00;5065581;28;20038;-75
2022/10/17 01:25:23;;;;;;;18.42;10.07;;;;;;;5.08;100.00;99049.56;5066792;28;20028;-75
2022/10/17 01:28:04;;;;;;;19.52;10.13;;;;;;;5.20;100.00;99057.38;5073217;28;20036;-75
2022/10/17 01:30:51;;;;;;;22.92;9.70;;;;;;;5.11;100.00;99050.41;5065903;28;20024;-75
2022/10/17 01:33:43;;;;;;;18.73;9.60;;;;;;;4.89;100.00;99027.81;5072620;28;20021;-76
2022/10/17 01:36:21;;;;;;;22.92;10.85;;;;;;;4.83;100.00;99044.66;5043249;28;20032;-75
2022/10/17 01:38:48;;;;;;;24.15;11.05;;;;;;;4.79;100.00;99047.41;5094607;28;20039;-75
2022/10/17 01:41:19;;;;;;;22.73;9.98;;;;;;;4.65;100.00;99039.63;5076037;28;20024;-76
2022/10/17 01:44:14;;;;;;;25.73;11.50;;;;;;;4.72;100.00;99051.91;5093070;28;20406;-76
2022/10/17 01:46:48;;;;;;;21.80;10.95;;;;;;;4.65;100.00;99049.34;5076328;28;20032;-76
2022/10/17 01:49:15;;;;;;;25.52;11.05;;;;;;;4.67;100.00;99056.41;5075855;28;20081;-76
2022/10/17 01:52:11;;;;;;;19.48;9.60;;;;;;;4.74;100.00;99070.41;5093077;28;20032;-76
2022/10/17 01:54:44;;;;;;;28.10;10.20;;;;;;;4.81;100.00;99075.63;5075034;28;20491;-76
2022/10/17 01:57:38;;;;;;;18.42;10.32;;;;;;;4.82;100.00;99080.03;5075746;28;20372;-75
2022/10/17 02:00:05;;;;;;;21.92;10.60;;;;;;;4.90;100.00;99075.50;5092436;28;20070;-75
2022/10/17 02:02:32;;;;;;;24.75;11.60;;;;;;;4.89;100.00;99067.56;5092645;28;20031;-75
2022/10/17 02:04:58;;;;;;;19.42;10.90;;;;;;;4.85;100.00;99073.81;5092832;28;20403;-75
2022/10/17 02:07:23;;;;;;;22.58;10.02;;;;;;;4.72;100.00;99066.94;5092503;28;20093;-75
2022/10/17 02:09:49;;;;;;;27.67;11.57;;;;;;;4.64;100.00;99074.13;5092792;28;20032;-75
2022/10/17 02:12:39;;;;;;;23.25;11.20;;;;;;;4.64;100.00;99084.72;5092593;28;20096;-75
2022/10/17 02:15:20;;;;;;;20.20;10.30;;;;;;;4.60;100.00;99088.31;5092365;28;20024;-74
2022/10/17 02:17:57;;;;;;;20.88;10.20;;;;;;;4.66;100.00;99099.69;5069537;28;20085;-76
2022/10/17 02:20:29;;;;;;;20.48;9.75;;;;;;;4.70;100.00;99103.19;5078260;28;20024;-75
2022/10/17 02:23:02;;;;;;;18.00;10.05;;;;;;;4.64;100.00;99096.19;5075693;28;20028;-76
2022/10/17 02:25:35;;;;;;;17.33;9.77;;;;;;;4.57;100.00;99091.00;5075294;28;20055;-76
2022/10/17 02:28:27;;;;;;;22.05;10.63;;;;;;;4.49;100.00;99088.44;5093426;28;20035;-76
2022/10/17 02:31:06;;;;;;;19.85;10.30;;;;;;;4.36;100.00;99089.50;5093623;28;20131;-76
2022/10/17 02:33:36;;;;;;;22.38;10.27;;;;;;;4.37;100.00;99102.72;5092025;28;20103;-77
2022/10/17 02:36:06;;;;;;;23.92;9.93;;;;;;;4.32;100.00;99099.25;5091366;28;20486;-76
2022/10/17 02:38:32;;;;;;;22.20;10.60;;;;;;;4.30;100.00;99101.06;5072463;28;20038;-75
2022/10/17 02:40:58;;;;;;;25.80;11.10;;;;;;;4.25;100.00;99107.28;5069418;28;20032;-76
2022/10/17 02:43:24;;;;;;;35.10;14.45;;;;;;;4.11;100.00;99091.56;5075079;28;20197;-75
2022/10/17 02:45:50;;;;;;;27.33;13.68;;;;;;;4.21;100.00;99108.22;5075130;28;20551;-76
2022/10/17 02:48:19;;;;;;;24.80;12.85;;;;;;;4.37;100.00;99133.63;5074754;28;20403;-76
2022/10/17 02:51:00;;;;;;;28.42;13.50;;;;;;;4.41;100.00;99130.03;5079330;28;20408;-76
2022/10/17 02:54:03;;;;;;;32.15;14.60;;;;;;;4.35;100.00;99120.41;5071494;28;20377;-76
2022/10/17 02:56:34;;;;;;;28.23;13.35;;;;;;;4.28;100.00;99121.38;5057984;28;20045;-74
2022/10/17 02:59:00;;;;;;;24.60;13.18;;;;;;;4.27;100.00;99130.22;5071552;28;20123;-75
2022/10/17 03:01:26;;;;;;;24.08;11.85;;;;;;;4.32;100.00;99131.03;5090510;28;20499;-75
2022/10/17 03:04:10;;;;;;;25.23;11.55;;;;;;;4.43;100.00;99138.00;5092741;28;20024;-76
2022/10/17 03:06:36;;;;;;;31.52;12.73;;;;;;;4.51;100.00;99146.72;5092814;28;20028;-76
2022/10/17 03:09:02;;;;;;;29.25;14.07;;;;;;;4.42;100.00;99137.09;5092504;28;20148;-76
2022/10/17 03:11:28;;;;;;;36.70;17.63;;;;;;;4.31;100.00;99136.34;5074365;28;20035;-76
2022/10/17 03:13:53;;;;;;;28.02;14.20;;;;;;;4.22;100.00;99134.69;5064311;28;20055;-76
2022/10/17 03:16:19;;;;;;;37.15;15.18;;;;;;;4.23;100.00;99141.75;5054306;28;20083;-76
2022/10/17 03:18:44;;;;;;;24.13;12.38;;;;;;;4.12;100.00;99135.66;5054335;28;20024;-76
2022/10/17 03:21:10;;;;;;;23.02;11.85;;;;;;;4.03;100.00;99127.81;5071009;28;20028;-75
2022/10/17 03:23:35;;;;;;;22.77;10.98;;;;;;;4.02;100.00;99130.50;5070738;28;20032;-76
2022/10/17 03:26:05;;;;;;;26.38;12.70;;;;;;;4.01;100.00;99141.97;5054243;28;20032;-74
2022/10/17 03:28:31;;;;;;;20.83;11.80;;;;;;;3.85;100.00;99130.66;5053844;28;20545;-75
2022/10/17 03:30:57;;;;;;;33.55;13.60;;;;;;;3.80;100.00;99129.84;5070742;28;20028;-75
2022/10/17 03:33:22;;;;;;;33.85;12.88;;;;;;;3.74;100.00;99133.44;5070638;28;20028;-76
2022/10/17 03:35:48;;;;;;;37.70;14.15;;;;;;;3.69;100.00;99132.56;5053920;28;20028;-76
2022/10/17 03:38:13;;;;;;;27.75;13.30;;;;;;;3.68;100.00;99143.19;5083178;28;20637;-77
2022/10/17 03:40:39;;;;;;;33.00;13.15;;;;;;;3.59;100.00;99146.78;5090356;28;20398;-76
2022/10/17 03:43:04;;;;;;;30.83;11.77;;;;;;;3.59;100.00;99140.63;5079810;28;20045;-76
2022/10/17 03:45:30;;;;;;;21.95;11.10;;;;;;;3.66;100.00;99144.97;5088908;28;20024;-76
2022/10/17 03:47:57;;;;;;;20.50;10.38;;;;;;;3.58;100.00;99162.66;5073636;28;20081;-76
2022/10/17 03:50:23;;;;;;;24.52;10.77;;;;;;;3.52;100.00;99146.84;5073623;28;20051;-76
2022/10/17 03:52:49;;;;;;;23.27;10.75;;;;;;;3.58;100.00;99171.50;5090543;28;20031;-74
2022/10/17 03:55:15;;;;;;;19.73;10.77;;;;;;;3.50;100.00;99157.47;5090563;28;20072;-75
2022/10/17 03:57:40;;;;;;;21.30;11.25;;;;;;;3.57;100.00;99168.88;5090405;28;20035;-76
2022/10/17 04:00:07;;;;;;;21.60;10.32;;;;;;;3.61;100.00;99168.81;5091640;28;20453;-74
2022/10/17 04:02:34;;;;;;;23.80;11.35;;;;;;;3.43;100.00;99154.84;5080349;28;20032;-75
2022/10/17 04:05:00;;;;;;;24.65;11.30;;;;;;;3.52;100.00;99166.25;5069831;28;20389;-76
2022/10/17 04:07:26;;;;;;;23.38;11.23;;;;;;;3.48;100.00;99166.25;5053404;28;20032;-76
2022/10/17 04:09:51;;;;;;;25.27;11.05;;;;;;;3.46;100.00;99162.75;5053103;28;20385;-76
2022/10/17 04:12:17;;;;;;;29.10;12.27;;;;;;;3.50;100.00;99162.75;5053286;28;20423;-77
2022/10/17 04:14:42;;;;;;;24.13;12.75;;;;;;;3.54;100.00;99177.69;5069654;28;20062;-75
2022/10/17 04:17:08;;;;;;;30.60;12.40;;;;;;;3.47;100.00;99173.34;5064393;28;20472;-75
2022/10/17 04:19:34;;;;;;;26.50;11.50;;;;;;;3.54;100.00;99177.69;5071074;28;20028;-76
2022/10/17 04:22:01;;;;;;;28.63;12.68;;;;;;;3.48;100.00;99172.44;5070742;28;20032;-76
2022/10/17 04:24:27;;;;;;;36.33;13.27;;;;;;;3.41;100.00;99168.09;5054055;28;20052;-75
2022/10/17 04:26:53;;;;;;;33.08;14.55;;;;;;;3.46;100.00;99183.94;5052968;28;20549;-75
2022/10/17 04:29:19;;;;;;;32.75;14.98;;;;;;;3.55;100.00;99191.78;5052914;28;20122;-75
2022/10/17 04:31:45;;;;;;;47.15;18.42;;;;;;;3.38;100.00;99173.41;5070546;28;20032;-75
2022/10/17 04:34:13;;;;;;;47.58;16.92;;;;;;;3.37;100.00;99179.59;5062741;28;20468;-75
2022/10/17 04:36:38;;;;;;;47.85;18.50;;;;;;;3.46;100.00;99192.75;5055803;28;20021;-75
2022/10/17 04:39:04;;;;;;;45.28;17.67;;;;;;;3.53;100.00;99197.09;5078537;28;20399;-74
2022/10/17 04:41:30;;;;;;;44.55;14.88;;;;;;;3.55;100.00;99203.25;5089538;28;20056;-75
2022/10/17 04:43:56;;;;;;;33.08;14.02;;;;;;;3.47;100.00;99197.16;5070504;28;20036;-76
2022/10/17 04:46:21;;;;;;;35.10;15.20;;;;;;;3.36;100.00;99196.34;5069399;28;20488;-75
2022/10/17 04:48:47;;;;;;;62.63;18.98;;;;;;;3.40;100.00;99211.31;5067108;28;20031;-77
2022/10/17 04:51:16;;;;;;;75.20;20.77;;;;;;;3.43;100.00;99221.84;5072513;28;20036;-76
2022/10/17 04:53:42;;;;;;;53.20;19.40;;;;;;;3.46;100.00;99224.47;5072497;28;20084;-76
2022/10/17 04:56:10;;;;;;;48.22;19.42;;;;;;;3.53;100.00;99220.91;5049701;28;20029;-76
2022/10/17 04:58:36;;;;;;;52.08;20.30;;;;;;;3.60;100.00;99232.34;5068839;28;20063;-76
2022/10/17 05:01:10;;;;;;;42.50;19.48;;;;;;;3.63;100.00;99230.53;5069042;28;20032;-75
2022/10/17 05:03:36;;;;;;;69.32;19.35;;;;;;;3.63;100.00;99233.16;5052467;28;20029;-76
2022/10/17 05:06:09;;;;;;;54.53;18.63;;;;;;;3.72;100.00;99242.84;5068941;28;20478;-75
2022/10/17 05:08:35;;;;;;;42.53;16.50;;;;;;;3.74;100.00;99238.41;5069068;28;20028;-75
2022/10/17 05:11:01;;;;;;;37.72;17.27;;;;;;;3.83;100.00;99240.97;5069053;28;20527;-76
2022/10/17 05:13:27;;;;;;;38.00;17.65;;;;;;;3.73;100.00;99224.28;5072017;28;20034;-76
2022/10/17 05:15:52;;;;;;;48.28;16.92;;;;;;;3.77;100.00;99233.97;5088986;28;20367;-76
2022/10/17 05:18:18;;;;;;;42.65;17.65;;;;;;;4.10;100.00;99251.31;5087392;28;20020;-76
2022/10/17 05:20:46;;;;;;;41.90;17.90;;;;;;;4.10;100.00;99242.50;5052600;28;20074;-76
2022/10/17 05:23:12;;;;;;;44.92;17.70;;;;;;;4.18;100.00;99252.13;5080583;28;20113;-76
2022/10/17 05:25:37;;;;;;;43.63;19.95;;;;;;;4.36;100.00;99259.03;5065712;28;20013;-75
2022/10/17 05:28:03;;;;;;;60.88;25.50;;;;;;;4.37;100.00;99245.75;5068857;28;20071;-75
2022/10/17 05:30:29;;;;;;;74.80;30.75;;;;;;;4.69;100.00;99263.97;5052511;28;20037;-75
2022/10/17 05:32:54;;;;;;;102.78;42.55;;;;;;;5.86;100.00;99296.94;5069267;28;20024;-75
2022/10/17 05:35:20;;;;;;;82.05;36.97;;;;;;;6.51;100.00;99283.47;5052157;28;20781;-75
2022/10/17 05:37:46;;;;;;;65.15;28.33;;;;;;;7.27;100.00;99289.97;5069233;28;20091;-75
2022/10/17 05:40:12;;;;;;;70.50;24.83;;;;;;;8.28;96.94;99293.88;5068788;28;21494;-75
2022/10/17 05:42:38;;;;;;;52.13;23.58;;;;;;;9.20;88.97;99272.72;5075180;28;20067;-75
2022/10/17 05:45:04;;;;;;;57.17;24.17;;;;;;;10.14;83.75;99262.69;5083437;28;20108;-77
2022/10/17 05:47:30;;;;;;;62.25;25.73;;;;;;;10.98;77.22;99231.22;5089021;28;20043;-75
2022/10/17 05:49:55;;;;;;;60.17;24.83;;;;;;;11.37;74.53;99197.59;5083126;28;20016;-77
2022/10/17 05:52:21;;;;;;;66.35;27.15;;;;;;;12.00;71.80;99182.56;5069663;28;20031;-76
2022/10/17 05:54:46;;;;;;;76.30;29.17;;;;;;;12.31;68.79;99150.81;5088983;28;20054;-75
2022/10/17 05:57:12;;;;;;;96.07;29.65;;;;;;;12.38;67.86;99141.56;5088705;28;20472;-75
2022/10/17 05:59:37;;;;;;;67.43;27.83;;;;;;;12.72;66.42;99130.19;5069583;28;20024;-75
2022/10/17 06:02:03;;;;;;;88.22;28.08;;;;;;;13.34;64.22;99126.44;5071909;28;20107;-75
2022/10/17 06:04:29;;;;;;;60.00;24.40;;;;;;;13.66;62.83;99117.66;5073536;28;20036;-75
2022/10/17 06:06:55;;;;;;;62.95;24.73;;;;;;;13.97;61.65;99098.19;5068784;28;20028;-76
2022/10/17 06:09:21;;;;;;;50.13;23.70;;;;;;;13.50;62.71;99071.00;5053792;28;20056;-75
2022/10/17 06:11:47;;;;;;;101.93;33.03;;;;;;;13.31;62.89;99060.28;5086275;28;20381;-75
2022/10/17 06:14:12;;;;;;;68.68;26.10;;;;;;;13.67;61.92;99056.69;5055459;28;20128;-75
2022/10/17 06:16:38;;;;;;;46.63;22.35;;;;;;;13.57;62.41;99050.91;5082958;28;20020;-76
2022/10/17 06:19:04;;;;;;;48.38;22.70;;;;;;;13.97;60.92;99055.13;5075385;28;20027;-75
2022/10/17 06:21:33;;;;;;;51.30;21.20;;;;;;;14.10;60.20;99040.09;5092376;28;20070;-76
2022/10/17 06:23:58;;;;;;;47.97;22.52;;;;;;;13.94;60.51;99028.38;5092521;28;20107;-76
2022/10/17 06:26:24;;;;;;;41.08;21.75;;;;;;;14.41;59.16;99037.56;5066523;28;20111;-75
2022/10/17 06:28:49;;;;;;;56.45;26.38;;;;;;;14.85;57.75;99037.84;5058888;28;20066;-76
2022/10/17 06:31:16;;;;;;;66.57;35.63;;;;;;;15.44;55.95;99049.78;5075125;28;20024;-74
2022/10/17 06:33:41;;;;;;;72.55;34.40;;;;;;;15.79;55.24;99039.66;5091854;28;20036;-75
2022/10/17 06:36:10;;;;;;;73.70;33.97;;;;;;;16.46;53.17;99031.03;5091851;28;20035;-75
2022/10/17 06:38:36;;;;;;;55.75;28.05;;;;;;;16.95;51.75;99026.16;5066896;28;20056;-75
2022/10/17 06:41:12;;;;;;;55.25;27.00;;;;;;;17.48;50.65;99017.22;5059025;28;20071;-75
2022/10/17 06:43:38;;;;;;;42.75;24.88;;;;;;;17.75;50.15;98994.63;5065423;28;20036;-74
2022/10/17 06:46:04;;;;;;;42.72;20.70;;;;;;;17.98;49.55;99000.31;5068020;28;20036;-75
2022/10/17 06:48:30;;;;;;;38.45;18.45;;;;;;;18.17;48.91;98984.53;5080285;28;20054;-75
2022/10/17 06:51:00;;;;;;;39.42;21.35;;;;;;;18.59;47.82;98981.53;5074922;28;20027;-75
2022/10/17 06:53:27;;;;;;;36.00;20.23;;;;;;;18.47;49.47;98984.22;5091543;28;20030;-74
2022/10/17 06:55:54;;;;;;;31.45;16.63;;;;;;;18.58;48.78;98979.78;5074938;28;20028;-74
2022/10/17 06:58:20;;;;;;;40.67;18.85;;;;;;;18.84;48.31;98962.53;5086034;28;20047;-75
2022/10/17 07:00:45;;;;;;;28.05;16.63;;;;;;;19.40;47.17;98962.94;5091774;28;20071;-76
2022/10/17 07:03:11;;;;;;;31.15;17.95;;;;;;;19.74;46.25;98962.13;5074418;28;20088;-74
2022/10/17 07:05:36;;;;;;;35.65;17.10;;;;;;;20.10;45.54;98973.81;5087879;28;20016;-74
2022/10/17 07:08:04;;;;;;;26.80;15.07;;;;;;;20.36;45.74;98964.53;5054529;28;20111;-75
2022/10/17 07:10:29;;;;;;;31.95;14.13;;;;;;;19.93;46.04;98954.25;5062159;28;20507;-76
2022/10/17 07:12:55;;;;;;;29.20;15.75;;;;;;;19.64;46.99;98950.22;5068362;28;20031;-76
2022/10/17 07:15:20;;;;;;;37.50;16.55;;;;;;;19.08;48.05;98940.88;5068942;28;20473;-75
2022/10/17 07:17:49;;;;;;;33.95;18.77;;;;;;;18.48;49.20;98935.34;5072672;28;20166;-75
2022/10/17 07:20:15;;;;;;;36.40;16.50;;;;;;;18.72;49.07;98949.00;5070220;28;20074;-74
2022/10/17 07:22:41;;;;;;;33.05;16.30;;;;;;;18.74;49.30;98947.91;5088559;28;20109;-75
2022/10/17 07:25:07;;;;;;;25.42;14.07;;;;;;;19.01;48.50;98944.16;5061662;28;20032;-75
2022/10/17 07:27:33;;;;;;;30.95;16.35;;;;;;;19.65;47.34;98954.66;5070041;28;20031;-75
2022/10/17 07:29:58;;;;;;;38.15;15.13;;;;;;;19.70;47.34;98938.88;5073897;28;20035;-76
2022/10/17 07:32:24;;;;;;;24.95;15.20;;;;;;;19.40;47.52;98924.94;5059011;28;20028;-75
2022/10/17 07:34:50;;;;;;;41.20;15.38;;;;;;;19.72;46.89;98942.34;5083573;28;20037;-75
2022/10/17 07:37:15;;;;;;;26.10;15.20;;;;;;;20.62;45.30;98949.72;5073922;28;20402;-75
2022/10/17 07:39:41;;;;;;;32.92;14.63;;;;;;;22.04;43.19;98965.03;5065043;28;20059;-75
2022/10/17 07:42:06;;;;;;;25.83;13.88;;;;;;;22.45;42.38;98955.13;5053772;28;20036;-75
2022/10/17 07:44:32;;;;;;;31.23;14.20;;;;;;;22.40;41.88;98930.97;5070176;28;20032;-76
2022/10/17 07:46:58;;;;;;;24.30;14.13;;;;;;;22.31;42.41;98939.06;5053813;28;20055;-75
2022/10/17 07:49:23;;;;;;;20.88;12.95;;;;;;;22.46;41.97;98937.72;5067746;28;20024;-76
2022/10/17 07:51:49;;;;;;;25.13;14.02;;;;;;;21.93;42.58;98924.19;5073566;28;20050;-76
2022/10/17 07:54:15;;;;;;;22.33;14.07;;;;;;;21.71;42.50;98907.94;5065475;28;20385;-76
2022/10/17 07:56:40;;;;;;;29.52;14.43;;;;;;;21.78;43.08;98917.28;5054363;28;20111;-76
2022/10/17 07:59:06;;;;;;;37.40;19.35;;;;;;;21.95;43.02;98911.31;5081931;28;20107;-75
2022/10/17 08:01:32;;;;;;;24.80;14.00;;;;;;;22.24;42.62;98919.66;5073300;28;20065;-76
2022/10/17 08:03:57;;;;;;;30.30;13.23;;;;;;;22.42;42.00;98919.94;5072787;28;20031;-75
2022/10/17 08:06:23;;;;;;;20.42;12.00;;;;;;;22.45;41.80;98914.22;5053476;28;20032;-75
2022/10/17 08:08:48;;;;;;;23.73;10.68;;;;;;;23.08;40.34;98908.44;5078663;28;20030;-76
2022/10/17 08:11:14;;;;;;;19.13;11.55;;;;;;;22.88;40.30;98897.63;5069467;28;20028;-75
2022/10/17 08:13:41;;;;;;;24.88;11.75;;;;;;;23.20;39.92;98901.84;5055411;28;20032;-75
2022/10/17 08:16:08;;;;;;;19.75;11.77;;;;;;;23.62;39.42;98918.06;5090412;28;20067;-75
2022/10/17 08:18:35;;;;;;;27.77;15.45;;;;;;;24.09;38.40;98914.41;5089989;28;20016;-75
2022/10/17 08:21:02;;;;;;;19.55;11.60;;;;;;;23.73;38.42;98896.03;5071430;28;20025;-75
2022/10/17 08:23:47;;;;;;;18.85;12.07;;;;;;;23.64;38.65;98870.44;5078171;28;20048;-75
2022/10/17 08:26:25;;;;;;;22.30;12.82;;;;;;;23.95;39.29;98890.25;5089431;28;20585;-75
2022/10/17 08:28:51;;;;;;;18.50;12.32;;;;;;;23.45;38.99;98867.69;5065592;28;20138;-75
2022/10/17 08:31:18;;;;;;;21.38;12.45;;;;;;;24.07;38.16;98886.34;5073112;28;20028;-75
2022/10/17 08:33:44;;;;;;;26.90;14.00;;;;;;;24.65;37.55;98897.16;5089002;28;20028;-76
2022/10/17 08:36:28;;;;;;;19.73;11.70;;;;;;;25.42;35.98;98888.53;5073173;28;20031;-76
2022/10/17 08:38:54;;;;;;;19.67;12.10;;;;;;;25.14;36.09;98876.75;5063846;28;20135;-76
2022/10/17 08:41:34;;;;;;;22.13;10.52;;;;;;;26.04;34.82;98884.84;5052769;28;20512;-76
2022/10/17 08:44:37;;;;;;;14.93;8.52;;;;;;;25.31;34.99;98846.66;5078772;28;20459;-75
2022/10/17 08:47:05;;;;;;;11.40;8.30;;;;;;;26.23;33.35;98871.84;5089468;28;20476;-75
2022/10/17 08:49:30;;;;;;;43.47;28.33;;;;;;;26.21;33.92;98856.56;5072593;28;20036;-74
2022/10/17 08:52:06;;;;;;;43.13;26.48;;;;;;;27.10;32.62;98852.38;5090311;28;20103;-75
2022/10/17 08:54:50;;;;;;;16.60;9.75;;;;;;;27.69;31.52;98858.72;5052562;28;20041;-75
2022/10/17 08:57:16;;;;;;;18.33;10.02;;;;;;;27.52;31.96;98846.84;5069246;28;20032;-74
2022/10/17 08:59:43;;;;;;;17.00;10.50;;;;;;;27.78;31.33;98844.78;5055294;28;20111;-75
2022/10/17 09:02:39;;;;;;;16.58;9.57;;;;;;;27.29;32.22;98835.59;5082153;28;20058;-75
2022/10/17 09:05:39;;;;;;;16.88;8.57;;;;;;;27.64;31.31;98825.38;5089228;28;20024;-75
2022/10/17 09:08:26;;;;;;;18.95;10.23;;;;;;;27.42;31.54;98835.13;5089448;28;20023;-77
2022/10/17 09:11:15;;;;;;;18.85;10.10;;;;;;;26.60;32.12;98824.03;5090492;28;20055;-76
2022/10/17 09:13:52;;;;;;;18.85;12.70;;;;;;;27.05;31.70;98829.19;5062892;28;20118;-76
2022/10/17 09:16:44;;;;;;;23.60;12.25;;;;;;;27.36;31.54;98833.91;5075593;28;20032;-75
2022/10/17 09:19:23;;;;;;;24.35;14.23;;;;;;;28.23;30.54;98844.28;5070366;28;20031;-76
2022/10/17 09:21:54;;;;;;;14.32;7.95;;;;;;;27.06;31.06;98807.06;5054719;28;20516;-76
2022/10/17 09:24:29;;;;;;;9.73;6.83;;;;;;;26.54;31.48;98808.22;5080039;28;20032;-75
2022/10/17 09:26:55;;;;;;;12.93;7.00;;;;;;;27.50;31.05;98823.31;5056516;28;20267;-75
2022/10/17 09:29:23;;;;;;;10.20;6.72;;;;;;;26.99;31.10;98802.38;5088418;28;20395;-76
2022/10/17 09:32:22;;;;;;;13.95;8.57;;;;;;;27.71;30.90;98823.66;5088916;28;20020;-75
2022/10/17 09:34:47;;;;;;;8.90;4.93;;;;;;;27.07;30.36;98800.50;5055524;28;20412;-75
2022/10/17 09:37:15;;;;;;;10.80;4.55;;;;;;;26.86;30.95;98805.59;5072414;28;20024;-76
2022/10/17 09:39:42;;;;;;;5.85;4.30;;;;;;;26.56;31.12;98800.66;5072339;28;20039;-76
2022/10/17 09:42:12;;;;;;;12.43;4.95;;;;;;;26.72;31.60;98807.09;5088809;28;20102;-77
2022/10/17 09:45:14;;;;;;;6.13;4.43;;;;;;;27.82;30.11;98826.06;5057938;28;20090;-75
2022/10/17 09:48:19;;;;;;;7.57;4.47;;;;;;;29.27;28.55;98822.94;5084782;28;20024;-76
2022/10/17 09:50:44;;;;;;;12.02;4.70;;;;;;;29.03;28.39;98799.09;5077913;28;20408;-76
2022/10/17 09:53:26;;;;;;;11.55;5.35;;;;;;;27.72;30.04;98792.34;5057129;28;20150;-76
2022/10/17 09:55:57;;;;;;;6.28;4.70;;;;;;;28.81;29.38;98812.81;5055724;28;20021;-76
2022/10/17 09:58:23;;;;;;;9.40;5.68;;;;;;;29.55;28.52;98812.22;5056112;28;20036;-76
2022/10/17 10:00:49;;;;;;;5.68;4.13;;;;;;;29.25;28.11;98783.66;5082810;28;20104;-77
2022/10/17 10:03:18;;;;;;;10.95;4.60;;;;;;;28.46;28.89;98783.81;5076023;28;20502;-77
2022/10/17 10:06:12;;;;;;;9.27;4.93;;;;;;;29.20;28.78;98794.31;5076408;28;20475;-77
2022/10/17 10:08:59;;;;;;;6.97;4.85;;;;;;;31.39;26.40;98823.34;5068956;28;20039;-77
2022/10/17 10:11:43;;;;;;;10.13;4.60;;;;;;;31.70;25.78;98790.72;5076086;28;20110;-76
2022/10/17 10:14:23;;;;;;;8.70;4.65;;;;;;;31.99;25.45;98789.69;5093707;28;20024;-76
2022/10/17 10:16:52;;;;;;;14.05;5.18;;;;;;;31.66;25.78;98781.94;5091848;28;20024;-77
2022/10/17 10:19:31;;;;;;;5.95;4.20;;;;;;;30.84;26.36;98769.50;5067625;28;20107;-76
2022/10/17 10:22:02;;;;;;;10.02;3.90;;;;;;;31.11;25.99;98773.44;5082481;28;20112;-76
2022/10/17 10:24:29;;;;;;;23.08;5.60;;;;;;;31.03;26.12;98773.59;5075534;28;20092;-78
2022/10/17 10:26:57;;;;;;;8.88;4.70;;;;;;;31.00;25.80;98760.16;5092096;28;20028;-76
2022/10/17 10:29:35;;;;;;;6.00;4.45;;;;;;;31.82;25.41;98766.13;5075160;28;20024;-76
2022/10/17 10:32:20;;;;;;;10.45;5.80;;;;;;;31.85;25.17;98761.03;5072956;28;20028;-76
2022/10/17 10:34:52;;;;;;;6.95;3.70;;;;;;;32.12;24.68;98748.28;5055159;28;20504;-77
2022/10/17 10:37:24;;;;;;;8.82;4.00;;;;;;;31.25;25.10;98733.84;5056570;28;20563;-77
2022/10/17 10:39:58;;;;;;;9.15;3.75;;;;;;;31.48;24.99;98745.56;5055469;28;20028;-76
2022/10/17 10:42:30;;;;;;;4.80;4.15;;;;;;;31.57;24.87;98738.84;5074953;28;20086;-76
2022/10/17 10:45:25;;;;;;;15.75;8.55;;;;;;;32.13;24.83;98738.91;5068115;28;20039;-75
2022/10/17 10:47:59;;;;;;;5.93;3.92;;;;;;;32.44;24.43;98744.88;5071555;28;20106;-76
2022/10/17 10:50:28;;;;;;;16.58;6.72;;;;;;;32.37;23.96;98724.56;5055042;28;20028;-77
2022/10/17 10:53:05;;;;;;;10.20;4.88;;;;;;;32.56;23.62;98734.09;5054709;28;20568;-75
2022/10/17 10:55:36;;;;;;;7.10;4.10;;;;;;;32.77;23.83;98738.66;5070468;28;20071;-76
2022/10/17 10:58:57;;;;;;;8.70;4.18;;;;;;;33.36;23.30;98731.41;5064294;28;20039;-78
2022/10/17 11:01:34;;;;;;;34.92;6.03;;;;;;;32.78;23.16;98718.19;5069871;28;20119;-77
2022/10/17 11:04:05;;;;;;;6.55;3.60;;;;;;;32.67;23.12;98717.72;5060193;28;20040;-77
2022/10/17 11:06:36;;;;;;;12.65;3.90;;;;;;;31.50;23.67;98701.97;5073212;28;20503;-75
2022/10/17 11:09:13;;;;;;;33.80;6.18;;;;;;;31.03;24.45;98690.63;5079365;28;20528;-75
2022/10/17 11:11:50;;;;;;;6.20;3.50;;;;;;;31.35;24.12;98697.56;5091481;28;20027;-75
2022/10/17 11:14:57;;;;;;;9.88;3.78;;;;;;;32.28;23.65;98714.72;5088224;28;20412;-76
2022/10/17 11:17:39;;;;;;;10.55;4.10;;;;;;;32.37;23.54;98693.22;5074164;28;20416;-76
2022/10/17 11:20:04;;;;;;;4.45;3.40;;;;;;;32.05;23.37;98703.94;5073102;28;20465;-76
2022/10/17 11:22:33;;;;;;;8.95;3.80;;;;;;;31.81;24.04;98700.75;5088993;28;20032;-76
2022/10/17 11:25:14;;;;;;;6.05;4.05;;;;;;;31.00;24.41;98688.25;5061593;28;20063;-76
2022/10/17 11:27:39;;;;;;;10.60;5.07;;;;;;;31.03;24.50;98696.16;5092479;28;20052;-77
2022/10/17 11:30:05;;;;;;;6.20;3.50;;;;;;;31.29;24.07;98692.78;5056813;28;20569;-78
2022/10/17 11:32:39;;;;;;;4.72;3.83;;;;;;;31.38;24.03;98698.00;5058384;28;20437;-78
2022/10/17 11:35:24;;;;;;;4.10;3.20;;;;;;;32.27;22.86;98690.00;5074201;28;20479;-77
2022/10/17 11:38:10;;;;;;;6.63;3.42;;;;;;;32.85;22.90;98688.56;5074152;28;20032;-77